createdAt,value
2018-12-10T00:02:30.104Z,99807.12
2018-12-10T00:05:02.689Z,99815.62
2018-12-10T00:07:35.791Z,99829.59
2018-12-10T00:10:08.477Z,99841.86
2018-12-10T00:12:41.109Z,99846.23
2018-12-10T00:15:13.668Z,99834.07
2018-12-10T00:17:46.349Z,99819.27
2018-12-10T00:20:18.925Z,99835.88
2018-12-10T00:22:51.527Z,99842.28
2018-12-10T00:25:24.072Z,99834.03
2018-12-10T00:27:56.642Z,99837.44
2018-12-10T00:30:29.318Z,99849.31
2018-12-10T00:33:01.988Z,99838.64
2018-12-10T00:35:34.699Z,99847.13
2018-12-10T00:38:07.380Z,99858.38
2018-12-10T00:40:39.914Z,99863.78
2018-12-10T00:43:12.484Z,99871.06
2018-12-10T00:45:45.029Z,99871.45
2018-12-10T00:48:17.623Z,99882.30
2018-12-10T00:50:50.154Z,99882.02
2018-12-10T00:53:22.715Z,99877.91
2018-12-10T00:55:55.280Z,99870.78
2018-12-10T00:58:27.855Z,99875.38
2018-12-10T01:01:00.380Z,99889.05
2018-12-10T01:03:32.940Z,99894.07
2018-12-10T01:06:05.467Z,99893.73
2018-12-10T01:08:38.388Z,99895.73
2018-12-10T01:11:10.937Z,99902.48
2018-12-10T01:13:43.586Z,99901.25
2018-12-10T01:16:16.143Z,99909.41
2018-12-10T01:18:48.794Z,99904.09
2018-12-10T01:21:21.346Z,99916.34
2018-12-10T01:23:53.913Z,99918.70
2018-12-10T01:26:26.457Z,99916.34
2018-12-10T01:28:59.218Z,99926.85
2018-12-10T01:31:31.784Z,99934.20
2018-12-10T01:34:04.376Z,99934.59
2018-12-10T01:36:36.942Z,99942.84
2018-12-10T01:39:09.532Z,99948.22
2018-12-10T01:41:43.382Z,99954.53
2018-12-10T01:44:16.147Z,99960.88
2018-12-10T01:46:48.737Z,99955.87
2018-12-10T01:49:21.478Z,99968.84
2018-12-10T01:51:54.005Z,99973.92
2018-12-10T01:54:26.591Z,99980.67
2018-12-10T01:56:59.130Z,99978.56
2018-12-10T01:59:31.704Z,99993.01
2018-12-10T02:02:04.273Z,100007.21
2018-12-10T02:04:36.838Z,99993.09
2018-12-10T02:07:09.470Z,100004.52
2018-12-10T02:09:42.027Z,99995.67
2018-12-10T02:12:14.565Z,100006.71
2018-12-10T02:14:47.126Z,99999.45
2018-12-10T02:17:19.656Z,99990.69
2018-12-10T02:19:52.211Z,99996.72
2018-12-10T02:22:24.730Z,99997.23
2018-12-10T02:24:57.294Z,99998.93
2018-12-10T02:27:29.883Z,99990.56
2018-12-10T02:30:02.607Z,100009.48
2018-12-10T02:32:35.300Z,100017.09
2018-12-10T02:35:07.869Z,100012.45
2018-12-10T02:37:40.463Z,100007.81
2018-12-10T02:40:13.027Z,100007.06
2018-12-10T02:42:45.701Z,100023.41
2018-12-10T02:45:18.335Z,100014.42
2018-12-10T02:47:51.029Z,100019.39
2018-12-10T02:50:23.612Z,100018.20
2018-12-10T02:52:56.201Z,100012.36
2018-12-10T02:55:28.789Z,100022.73
2018-12-10T02:58:01.472Z,100032.41
2018-12-10T03:00:34.048Z,100032.16
2018-12-10T03:03:06.918Z,100041.91
2018-12-10T03:05:39.491Z,100035.05
2018-12-10T03:08:12.216Z,100043.47
2018-12-10T03:10:44.820Z,100044.04
2018-12-10T03:13:17.449Z,100046.44
2018-12-10T03:15:50.018Z,100054.55
2018-12-10T03:18:22.744Z,100054.38
2018-12-10T03:20:55.314Z,100061.30
2018-12-10T03:23:28.146Z,100083.53
2018-12-10T03:26:00.761Z,100072.58
2018-12-10T03:28:33.440Z,100073.92
2018-12-10T03:31:06.043Z,100075.13
2018-12-10T03:33:38.653Z,100073.02
2018-12-10T03:36:11.244Z,100064.64
2018-12-10T03:38:43.885Z,100079.77
2018-12-10T03:41:16.449Z,100077.08
2018-12-10T03:43:49.081Z,100077.95
2018-12-10T03:46:21.709Z,100067.33
2018-12-10T03:48:54.428Z,100074.87
2018-12-10T03:51:26.984Z,100072.44
2018-12-10T03:53:59.791Z,100082.05
2018-12-10T03:56:32.356Z,100070.48
2018-12-10T03:59:04.934Z,100092.55
2018-12-10T04:01:37.539Z,100098.50
2018-12-10T04:04:10.373Z,100102.24
2018-12-10T04:06:43.010Z,100111.09
2018-12-10T04:09:15.622Z,100108.22
2018-12-10T04:11:48.185Z,100108.72
2018-12-10T04:14:20.798Z,100110.86
2018-12-10T04:16:53.364Z,100108.44
2018-12-10T04:19:25.958Z,100121.13
2018-12-10T04:21:58.568Z,100115.59
2018-12-10T04:24:31.394Z,100119.52
2018-12-10T04:27:03.943Z,100117.84
2018-12-10T04:29:36.579Z,100113.64
2018-12-10T04:32:09.151Z,100117.02
2018-12-10T04:34:41.895Z,100115.34
2018-12-10T04:37:14.469Z,100126.70
2018-12-10T04:39:47.164Z,100119.89
2018-12-10T04:42:19.757Z,100142.33
2018-12-10T04:44:52.468Z,100136.33
2018-12-10T04:47:25.158Z,100142.78
2018-12-10T04:49:57.775Z,100155.01
2018-12-10T04:52:30.342Z,100150.73
2018-12-10T04:55:03.234Z,100150.30
2018-12-10T04:57:35.795Z,100145.23
2018-12-10T05:00:08.590Z,100154.69
2018-12-10T05:02:41.226Z,100158.11
2018-12-10T05:05:13.852Z,100157.70
2018-12-10T05:07:46.416Z,100151.72
2018-12-10T05:10:19.019Z,100150.45
2018-12-10T05:12:51.592Z,100152.06
2018-12-10T05:15:24.184Z,100153.73
2018-12-10T05:17:56.766Z,100151.23
2018-12-10T05:20:29.365Z,100156.30
2018-12-10T05:23:02.066Z,100171.17
2018-12-10T05:25:34.656Z,100177.03
2018-12-10T05:28:07.240Z,100177.97
2018-12-10T05:30:39.841Z,100180.86
2018-12-10T05:33:12.434Z,100184.13
2018-12-10T05:35:45.007Z,100185.10
2018-12-10T05:38:17.555Z,100194.30
2018-12-10T05:40:50.685Z,100188.50
2018-12-10T05:43:23.256Z,100192.73
2018-12-10T05:45:55.857Z,100197.33
2018-12-10T05:48:28.468Z,100200.02
2018-12-10T05:51:01.067Z,100198.27
2018-12-10T05:53:33.676Z,100205.04
2018-12-10T05:56:06.363Z,100216.02
2018-12-10T05:58:38.970Z,100219.92
2018-12-10T06:01:11.650Z,100216.50
2018-12-10T06:03:44.207Z,100215.70
2018-12-10T06:06:17.479Z,100223.73
2018-12-10T06:08:50.086Z,100223.73
2018-12-10T06:11:22.773Z,100230.86
2018-12-10T06:13:55.886Z,100244.81
2018-12-10T06:16:28.606Z,100254.16
2018-12-10T06:19:01.170Z,100242.67
2018-12-10T06:21:33.890Z,100234.34
2018-12-10T06:24:06.468Z,100231.74
2018-12-10T06:26:39.464Z,100236.80
2018-12-10T06:29:12.086Z,100230.02
2018-12-10T06:31:45.060Z,100243.11
2018-12-10T06:34:18.100Z,100243.52
2018-12-10T06:36:51.139Z,100242.30
2018-12-10T06:39:23.825Z,100248.61
2018-12-10T06:41:56.819Z,100254.99
2018-12-10T06:44:29.798Z,100250.36
2018-12-10T06:47:02.999Z,100255.02
2018-12-10T06:49:35.596Z,100261.80
2018-12-10T06:52:08.202Z,100271.13
2018-12-10T06:54:40.750Z,100274.09
2018-12-10T06:57:13.332Z,100272.42
2018-12-10T06:59:45.899Z,100274.93
2018-12-10T07:02:20.461Z,100272.81
2018-12-10T07:04:53.111Z,100285.90
2018-12-10T07:07:25.723Z,100278.70
2018-12-10T07:09:58.362Z,100281.25
2018-12-10T07:12:30.997Z,100287.96
2018-12-10T07:15:04.000Z,100279.09
2018-12-10T07:17:36.590Z,100285.49
2018-12-10T07:20:09.188Z,100286.77
2018-12-10T07:22:41.868Z,100291.84
2018-12-10T07:25:14.456Z,100304.11
2018-12-10T07:27:47.053Z,100301.09
2018-12-10T07:30:19.653Z,100303.33
2018-12-10T07:32:52.354Z,100311.33
2018-12-10T07:35:24.974Z,100313.94
2018-12-10T07:37:57.744Z,100318.16
2018-12-10T07:40:30.316Z,100331.20
2018-12-10T07:43:02.968Z,100329.94
2018-12-10T07:45:35.542Z,100335.83
2018-12-10T07:48:08.182Z,100340.45
2018-12-10T07:50:40.811Z,100340.48
2018-12-10T07:53:13.407Z,100340.18
2018-12-10T07:55:46.042Z,100332.47
2018-12-10T07:58:18.747Z,100335.86
2018-12-10T08:00:51.609Z,100331.28
2018-12-10T08:03:24.307Z,100344.72
2018-12-10T08:05:56.874Z,100341.30
2018-12-10T08:08:29.499Z,100338.81
2018-12-10T08:11:03.073Z,100340.89
2018-12-10T08:13:35.762Z,100348.98
2018-12-10T08:16:08.322Z,100353.14
2018-12-10T08:18:40.956Z,100354.03
2018-12-10T08:21:13.517Z,100356.06
2018-12-10T08:23:46.460Z,100353.96
2018-12-10T08:26:19.232Z,100361.16
2018-12-10T08:28:58.638Z,100365.89
2018-12-10T08:31:26.449Z,100371.38
2018-12-10T08:33:59.108Z,100378.97
2018-12-10T08:36:31.740Z,100369.65
2018-12-10T08:39:06.520Z,100375.11
2018-12-10T08:41:39.249Z,100369.63
2018-12-10T08:44:11.901Z,100367.09
2018-12-10T08:46:44.655Z,100365.41
2018-12-10T08:49:17.248Z,100364.07
2018-12-10T08:51:49.865Z,100366.23
2018-12-10T08:54:22.554Z,100366.64
2018-12-10T08:56:55.180Z,100370.83
2018-12-10T08:59:27.762Z,100364.94
2018-12-10T09:02:00.327Z,100368.27
2018-12-10T09:04:33.151Z,100374.63
2018-12-10T09:07:05.721Z,100372.91
2018-12-10T09:09:38.322Z,100383.89
2018-12-10T09:12:11.059Z,100388.88
2018-12-10T09:14:43.706Z,100391.36
2018-12-10T09:17:16.479Z,100372.66
2018-12-10T09:19:49.226Z,100378.63
2018-12-10T09:22:21.909Z,100379.56
2018-12-10T09:24:54.526Z,100382.00
2018-12-10T09:27:27.135Z,100399.77
2018-12-10T09:29:59.844Z,100393.32
2018-12-10T09:32:32.439Z,100394.07
2018-12-10T09:35:05.532Z,100397.91
2018-12-10T09:37:38.156Z,100399.17
2018-12-10T09:40:10.886Z,100401.33
2018-12-10T09:42:43.458Z,100414.32
2018-12-10T09:45:16.052Z,100393.94
2018-12-10T09:47:48.626Z,100399.81
2018-12-10T09:50:21.464Z,100390.88
2018-12-10T09:52:54.034Z,100396.30
2018-12-10T09:55:26.647Z,100407.63
2018-12-10T09:57:59.188Z,100396.55
2018-12-10T10:00:32.235Z,100405.52
2018-12-10T10:03:04.797Z,100405.17
2018-12-10T10:05:37.400Z,100410.95
2018-12-10T10:08:09.940Z,100406.90
2018-12-10T10:10:42.533Z,100414.36
2018-12-10T10:13:15.115Z,100415.93
2018-12-10T10:15:47.917Z,100404.78
2018-12-10T10:18:20.489Z,100404.25
2018-12-10T10:20:53.100Z,100428.41
2018-12-10T10:23:25.662Z,100427.51
2018-12-10T10:25:58.398Z,100440.34
2018-12-10T10:28:31.014Z,100442.88
2018-12-10T10:31:03.735Z,100436.26
2018-12-10T10:33:36.320Z,100444.20
2018-12-10T10:36:08.891Z,100459.99
2018-12-10T10:38:41.561Z,100445.81
2018-12-10T10:41:14.104Z,100422.49
2018-12-10T10:43:47.048Z,100412.05
2018-12-10T10:46:19.683Z,100420.89
2018-12-10T10:48:52.288Z,100427.31
2018-12-10T10:51:24.866Z,100420.63
2018-12-10T10:53:57.795Z,100420.56
2018-12-10T10:56:30.355Z,100416.45
2018-12-10T10:59:03.019Z,100412.12
2018-12-10T11:01:41.394Z,100408.98
2018-12-10T11:04:14.212Z,100412.77
2018-12-10T11:06:46.778Z,100405.09
2018-12-10T11:09:19.378Z,100407.25
2018-12-10T11:11:51.940Z,100402.47
2018-12-10T11:14:24.534Z,100401.92
2018-12-10T11:16:57.114Z,100401.55
2018-12-10T11:19:29.788Z,100396.37
2018-12-10T11:22:02.366Z,100404.87
2018-12-10T11:24:35.375Z,100399.48
2018-12-10T11:27:07.952Z,100394.73
2018-12-10T11:29:40.717Z,100396.37
2018-12-10T11:32:13.311Z,100384.92
2018-12-10T11:34:46.004Z,100394.16
2018-12-10T11:37:18.649Z,100377.30
2018-12-10T11:39:51.263Z,100378.83
2018-12-10T11:42:23.979Z,100377.22
2018-12-10T11:44:56.625Z,100377.77
2018-12-10T11:47:29.238Z,100376.89
2018-12-10T11:50:01.895Z,100367.85
2018-12-10T11:52:34.842Z,100375.45
2018-12-10T11:55:08.057Z,100387.22
2018-12-10T11:57:41.028Z,100378.60
2018-12-10T12:00:14.134Z,100365.45
2018-12-10T12:02:47.239Z,100390.84
2018-12-10T12:05:20.383Z,100381.61
2018-12-10T12:07:54.278Z,100374.28
2018-12-10T12:10:27.173Z,100376.28
2018-12-10T12:12:59.788Z,100379.87
2018-12-10T12:15:32.527Z,100375.94
2018-12-10T12:18:05.279Z,100371.97
2018-12-10T12:20:37.939Z,100374.97
2018-12-10T12:23:10.525Z,100385.64
2018-12-10T12:25:43.143Z,100374.18
2018-12-10T12:28:15.697Z,100375.45
2018-12-10T12:30:48.314Z,100370.58
2018-12-10T12:33:21.137Z,100357.89
2018-12-10T12:35:53.774Z,100386.59
2018-12-10T12:38:26.381Z,100372.48
2018-12-10T12:40:59.065Z,100372.97
2018-12-10T12:43:31.630Z,100369.45
2018-12-10T12:46:04.686Z,100367.92
2018-12-10T12:48:37.259Z,100376.63
2018-12-10T12:51:09.912Z,100358.03
2018-12-10T12:53:42.456Z,100355.05
2018-12-10T12:56:15.182Z,100363.05
2018-12-10T12:58:47.743Z,100350.30
2018-12-10T13:01:20.405Z,100356.98
2018-12-10T13:03:52.982Z,100366.79
2018-12-10T13:06:25.682Z,100370.90
2018-12-10T13:08:58.278Z,100381.56
2018-12-10T13:11:30.854Z,100378.46
2018-12-10T13:14:03.507Z,100367.61
2018-12-10T13:16:36.127Z,100355.37
2018-12-10T13:19:08.686Z,100370.14
2018-12-10T13:21:41.307Z,100398.16
2018-12-10T13:24:13.872Z,100405.30
2018-12-10T13:26:46.494Z,100422.23
2018-12-10T13:29:19.292Z,100408.62
2018-12-10T13:31:51.889Z,100415.41
2018-12-10T13:34:24.457Z,100408.59
2018-12-10T13:36:57.164Z,100405.30
2018-12-10T13:39:29.736Z,100433.58
2018-12-10T13:42:02.333Z,100418.89
2018-12-10T13:44:34.992Z,100402.80
2018-12-10T13:47:07.590Z,100407.14
2018-12-10T13:49:40.146Z,100408.80
2018-12-10T13:52:12.765Z,100406.63
2018-12-10T13:54:45.326Z,100404.94
2018-12-10T13:57:17.926Z,100412.17
2018-12-10T13:59:50.579Z,100413.95
2018-12-10T14:02:23.271Z,100408.42
2018-12-10T14:04:55.862Z,100419.41
2018-12-10T14:07:28.546Z,100405.86
2018-12-10T14:10:01.220Z,100410.08
2018-12-10T14:12:33.818Z,100414.30
2018-12-10T14:15:06.851Z,100410.90
2018-12-10T14:17:39.513Z,100412.98
2018-12-10T14:20:12.093Z,100412.55
2018-12-10T14:22:44.682Z,100407.52
2018-12-10T14:25:25.192Z,100418.91
2018-12-10T14:27:57.805Z,100424.84
2018-12-10T14:30:30.444Z,100435.00
2018-12-10T14:33:03.020Z,100439.23
2018-12-10T14:35:35.671Z,100438.88
2018-12-10T14:38:08.254Z,100439.69
2018-12-10T14:40:40.832Z,100433.02
2018-12-10T14:43:13.582Z,100428.80
2018-12-10T14:45:46.143Z,100437.22
2018-12-10T14:48:18.976Z,100432.22
2018-12-10T14:50:51.557Z,100431.41
2018-12-10T14:53:24.185Z,100423.83
2018-12-10T14:55:56.755Z,100430.61
2018-12-10T14:58:29.366Z,100432.34
2018-12-10T15:01:02.014Z,100425.13
2018-12-10T15:03:34.696Z,100429.72
2018-12-10T15:06:07.266Z,100428.47
2018-12-10T15:08:39.863Z,100427.66
2018-12-10T15:11:12.475Z,100418.77
2018-12-10T15:13:45.105Z,100423.42
2018-12-10T15:16:18.029Z,100425.09
2018-12-10T15:18:50.869Z,100412.81
2018-12-10T15:21:23.466Z,100418.73
2018-12-10T15:23:56.084Z,100414.09
2018-12-10T15:26:28.648Z,100428.88
2018-12-10T15:29:01.433Z,100417.88
2018-12-10T15:31:33.996Z,100415.34
2018-12-10T15:34:06.683Z,100412.78
2018-12-10T15:36:39.263Z,100410.66
2018-12-10T15:39:12.039Z,100403.92
2018-12-10T15:41:44.612Z,100400.13
2018-12-10T15:44:17.257Z,100406.88
2018-12-10T15:46:49.858Z,100396.77
2018-12-10T15:49:22.625Z,100394.62
2018-12-10T15:51:55.182Z,100395.45
2018-12-10T15:54:28.993Z,100398.84
2018-12-10T15:57:01.687Z,100386.95
2018-12-10T15:59:34.286Z,100406.02
2018-12-10T16:02:06.947Z,100399.17
2018-12-10T16:04:39.641Z,100393.22
2018-12-10T16:07:13.218Z,100400.84
2018-12-10T16:09:45.915Z,100399.05
2018-12-10T16:12:18.568Z,100400.80
2018-12-10T16:14:51.337Z,100399.45
2018-12-10T16:17:23.913Z,100397.31
2018-12-10T16:19:56.683Z,100407.86
2018-12-10T16:22:29.367Z,100401.52
2018-12-10T16:25:02.157Z,100409.08
2018-12-10T16:27:34.862Z,100392.23
2018-12-10T16:30:08.599Z,100396.06
2018-12-10T16:32:41.208Z,100418.88
2018-12-10T16:35:14.040Z,100408.73
2018-12-10T16:37:46.626Z,100425.62
2018-12-10T16:40:19.307Z,100430.28
2018-12-10T16:42:52.160Z,100417.25
2018-12-10T16:45:24.874Z,100425.62
2018-12-10T16:47:57.459Z,100431.98
2018-12-10T16:50:30.516Z,100449.00
2018-12-10T16:53:03.501Z,100432.17
2018-12-10T16:55:36.091Z,100421.62
2018-12-10T16:58:08.657Z,100414.84
2018-12-10T17:00:41.412Z,100425.42
2018-12-10T17:03:13.979Z,100426.30
2018-12-10T17:05:46.665Z,100416.55
2018-12-10T17:08:19.218Z,100430.48
2018-12-10T17:10:51.925Z,100421.99
2018-12-10T17:13:24.620Z,100429.61
2018-12-10T17:15:57.227Z,100422.48
2018-12-10T17:18:29.797Z,100418.29
2018-12-10T17:21:02.401Z,100422.55
2018-12-10T17:23:34.951Z,100410.69
2018-12-10T17:26:07.603Z,100412.42
2018-12-10T17:28:40.203Z,100406.06
2018-12-10T17:31:12.809Z,100402.25
2018-12-10T17:33:45.424Z,100408.14
2018-12-10T17:36:18.248Z,100415.73
2018-12-10T17:38:51.409Z,100410.66
2018-12-10T17:41:24.777Z,100408.10
2018-12-10T17:43:57.521Z,100418.66
2018-12-10T17:46:30.278Z,100431.31
2018-12-10T17:49:02.847Z,100432.56
2018-12-10T17:51:35.518Z,100423.70
2018-12-10T17:54:08.255Z,100428.77
2018-12-10T17:56:40.919Z,100424.10
2018-12-10T17:59:13.666Z,100422.82
2018-12-10T18:01:46.753Z,100415.61
2018-12-10T18:04:19.399Z,100412.19
2018-12-10T18:06:52.074Z,100403.75
2018-12-10T18:09:24.646Z,100423.59
2018-12-10T18:11:57.235Z,100411.27
2018-12-10T18:14:29.936Z,100412.06
2018-12-10T18:17:02.521Z,100412.52
2018-12-10T18:19:35.134Z,100414.62
2018-12-10T18:22:07.740Z,100406.63
2018-12-10T18:24:40.329Z,100402.83
2018-12-10T18:27:12.922Z,100400.60
2018-12-10T18:29:45.486Z,100404.04
2018-12-10T18:32:18.083Z,100398.50
2018-12-10T18:34:50.662Z,100395.94
2018-12-10T18:37:23.275Z,100393.06
2018-12-10T18:39:55.838Z,100408.31
2018-12-10T18:42:28.446Z,100413.37
2018-12-10T18:45:01.024Z,100411.70
2018-12-10T18:47:33.721Z,100399.45
2018-12-10T18:50:06.418Z,100395.64
2018-12-10T18:52:39.107Z,100404.08
2018-12-10T18:55:11.660Z,100396.52
2018-12-10T18:57:44.462Z,100393.91
2018-12-10T19:00:17.011Z,100392.22
2018-12-10T19:02:49.719Z,100397.34
2018-12-10T19:05:24.350Z,100393.94
2018-12-10T19:07:57.002Z,100401.56
2018-12-10T19:10:29.561Z,100397.33
2018-12-10T19:13:02.321Z,100373.23
2018-12-10T19:15:34.883Z,100399.48
2018-12-10T19:18:07.492Z,100400.31
2018-12-10T19:20:40.062Z,100395.67
2018-12-10T19:23:12.639Z,100399.05
2018-12-10T19:25:45.201Z,100405.87
2018-12-10T19:28:17.794Z,100395.68
2018-12-10T19:30:50.365Z,100387.22
2018-12-10T19:33:22.959Z,100403.32
2018-12-10T19:35:55.527Z,100407.08
2018-12-10T19:38:28.115Z,100407.39
2018-12-10T19:41:00.659Z,100404.01
2018-12-10T19:43:33.355Z,100401.48
2018-12-10T19:46:05.927Z,100415.41
2018-12-10T19:48:38.544Z,100415.06
2018-12-10T19:51:11.281Z,100426.00
2018-12-10T19:53:43.958Z,100425.59
2018-12-10T19:56:16.637Z,100432.34
2018-12-10T19:58:49.497Z,100428.52
2018-12-10T20:01:22.091Z,100430.55
2018-12-10T20:03:55.229Z,100422.99
2018-12-10T20:06:31.263Z,100431.87
2018-12-10T20:09:06.516Z,100427.59
2018-12-10T20:11:39.072Z,100431.80
2018-12-10T20:14:11.693Z,100437.77
2018-12-10T20:16:44.279Z,100447.52
2018-12-10T20:19:16.897Z,100426.80
2018-12-10T20:21:49.457Z,100436.48
2018-12-10T20:24:22.102Z,100436.91
2018-12-10T20:26:54.740Z,100432.67
2018-12-10T20:29:27.420Z,100439.05
2018-12-10T20:32:00.019Z,100444.53
2018-12-10T20:34:32.707Z,100455.45
2018-12-10T20:37:05.289Z,100447.88
2018-12-10T20:39:38.085Z,100458.00
2018-12-10T20:42:10.629Z,100461.39
2018-12-10T20:44:43.222Z,100460.98
2018-12-10T20:47:15.794Z,100463.50
2018-12-10T20:49:48.483Z,100458.45
2018-12-10T20:52:21.033Z,100462.17
2018-12-10T20:54:53.694Z,100460.00
2018-12-10T20:57:26.295Z,100469.36
2018-12-10T20:59:58.888Z,100462.16
2018-12-10T21:02:31.457Z,100459.96
2018-12-10T21:05:04.252Z,100457.41
2018-12-10T21:07:36.825Z,100468.78
2018-12-10T21:10:09.512Z,100455.23
2018-12-10T21:12:42.211Z,100466.70
2018-12-10T21:15:14.848Z,100471.77
2018-12-10T21:17:47.437Z,100475.22
2018-12-10T21:20:20.098Z,100482.75
2018-12-10T21:22:52.673Z,100478.94
2018-12-10T21:25:25.302Z,100479.76
2018-12-10T21:27:57.907Z,100481.92
2018-12-10T21:30:30.764Z,100481.03
2018-12-10T21:33:03.358Z,100491.27
2018-12-10T21:35:36.152Z,100490.82
2018-12-10T21:38:08.716Z,100484.44
2018-12-10T21:40:42.306Z,100491.63
2018-12-10T21:43:14.946Z,100500.95
2018-12-10T21:45:47.760Z,100486.56
2018-12-10T21:48:20.313Z,100490.80
2018-12-10T21:50:53.339Z,100487.41
2018-12-10T21:53:25.920Z,100496.72
2018-12-10T21:55:58.613Z,100489.50
2018-12-10T21:58:31.193Z,100488.65
2018-12-10T22:01:03.864Z,100499.24
2018-12-10T22:03:36.438Z,100495.48
2018-12-10T22:06:09.506Z,100500.50
2018-12-10T22:08:42.584Z,100507.67
2018-12-10T22:11:15.277Z,100491.11
2018-12-10T22:13:47.840Z,100501.31
2018-12-10T22:16:20.452Z,100499.66
2018-12-10T22:18:53.004Z,100499.23
2018-12-10T22:21:25.729Z,100505.13
2018-12-10T22:23:58.275Z,100511.47
2018-12-10T22:26:30.881Z,100513.52
2018-12-10T22:29:03.497Z,100511.02
2018-12-10T22:31:36.179Z,100520.33
2018-12-10T22:34:08.770Z,100514.77
2018-12-10T22:36:41.399Z,100511.39
2018-12-10T22:39:13.971Z,100521.13
2018-12-10T22:41:46.568Z,100515.20
2018-12-10T22:44:19.167Z,100521.48
2018-12-10T22:46:51.794Z,100513.84
2018-12-10T22:49:24.358Z,100519.73
2018-12-10T22:51:56.966Z,100516.86
2018-12-10T22:54:29.529Z,100515.92
2018-12-10T22:57:02.234Z,100524.89
2018-12-10T22:59:34.801Z,100517.72
2018-12-10T23:02:07.395Z,100524.89
2018-12-10T23:04:39.993Z,100519.81
2018-12-10T23:07:12.591Z,100527.06
2018-12-10T23:09:45.155Z,100524.11
2018-12-10T23:12:17.845Z,100513.95
2018-12-10T23:14:50.409Z,100526.17
2018-12-10T23:17:23.090Z,100529.55
2018-12-10T23:19:55.693Z,100529.65
2018-12-10T23:22:28.374Z,100538.07
2018-12-10T23:25:00.926Z,100538.44
2018-12-10T23:27:33.692Z,100529.17
2018-12-10T23:30:06.387Z,100530.36
2018-12-10T23:32:39.058Z,100533.41
2018-12-10T23:35:11.623Z,100542.22
2018-12-10T23:37:44.325Z,100529.95
2018-12-10T23:40:16.893Z,100538.89
2018-12-10T23:42:55.130Z,100538.78
2018-12-10T23:45:27.684Z,100537.22
2018-12-10T23:48:00.277Z,100548.13
2018-12-10T23:50:32.835Z,100543.88
2018-12-10T23:53:05.501Z,100544.74
2018-12-10T23:55:38.059Z,100542.56
2018-12-10T23:58:10.752Z,100543.02
